Time;durP1;ratioP1;P1;durP2;ratioP2;P2;SDS_P1;SDS_P2;PMS_P1;PMS_P2;Temp;Humidity;BMP_temperature;BMP_pressure;BME280_temperature;BME280_humidity;BME280_pressure;Samples;Min_cycle;Max_cycle;Signal;HPM_P1;HPM_P2
2023/03/07 00:01:36;;;;;;;27.92;17.08;;;;;;;;;;5052279;28;20021;-73
2023/03/07 00:04:03;;;;;;;27.15;16.63;;;;;;;;;;5043444;28;20456;-73
2023/03/07 00:06:28;;;;;;;30.08;16.67;;;;;;;;;;5050262;28;20029;-72
2023/03/07 00:08:56;;;;;;;26.33;15.70;;;;;;;;;;5049739;28;20534;-72
2023/03/07 00:11:22;;;;;;;27.27;15.73;;;;;;;;;;5042727;28;20025;-72
2023/03/07 00:13:48;;;;;;;26.98;16.67;;;;;;;;;;5065482;28;20063;-75
2023/03/07 00:16:15;;;;;;;26.23;16.27;;;;;;;;;;5067848;28;20017;-74
2023/03/07 00:18:42;;;;;;;26.02;16.70;;;;;;;;;;5052678;28;20017;-73
2023/03/07 00:21:09;;;;;;;26.58;15.45;;;;;;;;;;5050546;28;20483;-74
2023/03/07 00:23:37;;;;;;;27.80;16.73;;;;;;;;;;5050443;28;20372;-71
2023/03/07 00:26:22;;;;;;;29.40;16.85;;;;;;;;;;5066024;28;20127;-72
2023/03/07 00:28:49;;;;;;;24.77;15.55;;;;;;;;;;5061411;28;20020;-75
2023/03/07 00:31:15;;;;;;;25.80;15.05;;;;;;;;;;5032363;28;20025;-73
2023/03/07 00:33:41;;;;;;;27.73;15.60;;;;;;;;;;5051765;28;20495;-72
2023/03/07 00:36:10;;;;;;;24.58;15.82;;;;;;;;;;5058791;28;20403;-72
2023/03/07 00:38:36;;;;;;;28.00;15.52;;;;;;;;;;5060518;28;20471;-72
2023/03/07 00:41:05;;;;;;;23.58;14.70;;;;;;;;;;5054332;28;20419;-72
2023/03/07 00:43:31;;;;;;;26.88;15.95;;;;;;;;;;5051642;28;20063;-76
2023/03/07 00:45:57;;;;;;;25.80;15.15;;;;;;;;;;5065078;28;20025;-74
2023/03/07 00:48:24;;;;;;;26.08;15.52;;;;;;;;;;5057606;28;20032;-73
2023/03/07 00:50:50;;;;;;;23.35;14.68;;;;;;;;;;5064659;28;20061;-73
2023/03/07 00:53:16;;;;;;;27.35;16.15;;;;;;;;;;5059696;28;20039;-75
2023/03/07 00:55:42;;;;;;;22.88;15.48;;;;;;;;;;5057250;28;20029;-73
2023/03/07 00:58:08;;;;;;;24.88;15.73;;;;;;;;;;5041276;28;20017;-73
2023/03/07 01:00:34;;;;;;;27.35;16.92;;;;;;;;;;5059105;28;20020;-73
2023/03/07 01:03:02;;;;;;;27.80;16.05;;;;;;;;;;5060545;28;20051;-71
2023/03/07 01:05:28;;;;;;;26.42;16.17;;;;;;;;;;5054413;28;20025;-71
2023/03/07 01:07:54;;;;;;;26.42;16.13;;;;;;;;;;5054555;28;20029;-71
2023/03/07 01:10:20;;;;;;;27.30;15.80;;;;;;;;;;5062075;28;20025;-75
2023/03/07 01:12:46;;;;;;;26.08;16.08;;;;;;;;;;5068569;28;20471;-72
2023/03/07 01:15:12;;;;;;;25.40;15.85;;;;;;;;;;5067288;28;20032;-74
2023/03/07 01:17:38;;;;;;;26.27;15.88;;;;;;;;;;5067735;28;20568;-71
2023/03/07 01:20:07;;;;;;;24.45;15.85;;;;;;;;;;5074328;28;20107;-72
2023/03/07 01:22:33;;;;;;;24.77;15.07;;;;;;;;;;5054030;28;20013;-72
2023/03/07 01:24:59;;;;;;;28.02;15.75;;;;;;;;;;5035589;28;20397;-73
2023/03/07 01:27:25;;;;;;;23.95;15.05;;;;;;;;;;5052679;28;20040;-72
2023/03/07 01:29:51;;;;;;;24.23;15.40;;;;;;;;;;5055399;28;20501;-71
2023/03/07 01:32:17;;;;;;;24.75;15.73;;;;;;;;;;5052623;28;20075;-72
2023/03/07 01:34:43;;;;;;;23.42;14.93;;;;;;;;;;5049271;28;20551;-72
2023/03/07 01:37:09;;;;;;;23.88;15.13;;;;;;;;;;5032442;28;20021;-72
2023/03/07 01:39:35;;;;;;;25.75;15.85;;;;;;;;;;5073171;28;20033;-74
2023/03/07 01:42:01;;;;;;;25.80;16.10;;;;;;;;;;5058178;28;20079;-73
2023/03/07 01:44:27;;;;;;;22.92;14.90;;;;;;;;;;5052812;28;20546;-74
2023/03/07 01:46:54;;;;;;;24.65;16.30;;;;;;;;;;5052993;28;20128;-74
2023/03/07 01:49:32;;;;;;;24.35;16.00;;;;;;;;;;5054830;28;20112;-76
2023/03/07 01:52:01;;;;;;;26.63;15.18;;;;;;;;;;5056087;28;20044;-74
2023/03/07 01:54:27;;;;;;;23.30;14.77;;;;;;;;;;5046469;28;20025;-75
2023/03/07 01:56:54;;;;;;;27.67;17.73;;;;;;;;;;5058442;28;20020;-74
2023/03/07 01:59:24;;;;;;;22.98;15.98;;;;;;;;;;5071506;28;20013;-72
2023/03/07 02:01:51;;;;;;;24.05;15.63;;;;;;;;;;5058991;28;20430;-72
2023/03/07 02:04:28;;;;;;;25.27;15.57;;;;;;;;;;5052555;28;20021;-72
2023/03/07 02:06:54;;;;;;;23.30;15.65;;;;;;;;;;5054360;28;20027;-72
2023/03/07 02:09:21;;;;;;;24.63;15.52;;;;;;;;;;5051601;28;20398;-74
2023/03/07 02:11:48;;;;;;;25.55;15.75;;;;;;;;;;5051153;28;20086;-74
2023/03/07 02:14:13;;;;;;;23.67;15.30;;;;;;;;;;5034245;28;20071;-72
2023/03/07 02:16:40;;;;;;;26.23;16.90;;;;;;;;;;5052274;28;20025;-72
2023/03/07 02:19:15;;;;;;;24.15;15.40;;;;;;;;;;5051652;28;20025;-73
2023/03/07 02:21:45;;;;;;;25.58;17.02;;;;;;;;;;5052925;28;20120;-72
2023/03/07 02:24:20;;;;;;;28.13;16.90;;;;;;;;;;5064080;28;20009;-74
2023/03/07 02:26:47;;;;;;;23.70;15.32;;;;;;;;;;5042457;28;20403;-71
2023/03/07 02:29:13;;;;;;;24.48;16.45;;;;;;;;;;5064436;28;20031;-72
2023/03/07 02:31:40;;;;;;;24.08;15.98;;;;;;;;;;5060011;28;20040;-75
2023/03/07 02:34:21;;;;;;;26.27;16.50;;;;;;;;;;5052154;28;20056;-73
2023/03/07 02:36:48;;;;;;;24.17;15.40;;;;;;;;;;5051699;28;20025;-71
2023/03/07 02:39:14;;;;;;;25.55;16.40;;;;;;;;;;5060181;28;20021;-73
2023/03/07 02:41:40;;;;;;;22.35;14.73;;;;;;;;;;5071812;28;20020;-73
2023/03/07 02:44:07;;;;;;;24.33;16.48;;;;;;;;;;5072269;28;20482;-74
2023/03/07 02:46:32;;;;;;;24.00;16.08;;;;;;;;;;5071694;28;20484;-73
2023/03/07 02:48:58;;;;;;;21.85;14.45;;;;;;;;;;5070897;28;20044;-71
2023/03/07 02:51:24;;;;;;;21.08;14.73;;;;;;;;;;5071825;28;20078;-71
2023/03/07 02:53:51;;;;;;;25.15;14.70;;;;;;;;;;5058129;28;20036;-72
2023/03/07 02:56:17;;;;;;;23.98;14.93;;;;;;;;;;5051681;28;20021;-75
2023/03/07 02:58:43;;;;;;;24.60;16.45;;;;;;;;;;5051171;28;20023;-74
2023/03/07 03:01:09;;;;;;;22.27;15.50;;;;;;;;;;5059115;28;20017;-76
2023/03/07 03:03:35;;;;;;;22.42;14.82;;;;;;;;;;5064958;28;20029;-73
2023/03/07 03:06:01;;;;;;;21.90;14.50;;;;;;;;;;5056490;28;20112;-73
2023/03/07 03:08:27;;;;;;;22.27;14.10;;;;;;;;;;5050750;28;20053;-72
2023/03/07 03:10:53;;;;;;;22.27;14.10;;;;;;;;;;5051546;28;20017;-72
2023/03/07 03:13:19;;;;;;;24.25;14.98;;;;;;;;;;5051465;28;20028;-72
2023/03/07 03:15:45;;;;;;;19.73;13.13;;;;;;;;;;5064404;28;20108;-73
2023/03/07 03:18:12;;;;;;;22.23;14.68;;;;;;;;;;5053422;28;20108;-71
2023/03/07 03:20:41;;;;;;;22.95;14.50;;;;;;;;;;5055004;28;20049;-72
2023/03/07 03:23:07;;;;;;;21.17;14.35;;;;;;;;;;5071013;28;20069;-75
2023/03/07 03:25:34;;;;;;;23.02;14.07;;;;;;;;;;5071061;28;20028;-73
2023/03/07 03:28:00;;;;;;;22.67;13.82;;;;;;;;;;5070917;28;20016;-72
2023/03/07 03:30:31;;;;;;;24.13;14.98;;;;;;;;;;5071545;28;20025;-73
2023/03/07 03:32:57;;;;;;;24.08;14.50;;;;;;;;;;5061899;28;20024;-73
2023/03/07 03:35:23;;;;;;;21.30;13.65;;;;;;;;;;5051726;28;20158;-73
2023/03/07 03:37:49;;;;;;;20.80;13.60;;;;;;;;;;5050848;28;20542;-74
2023/03/07 03:40:16;;;;;;;20.45;13.60;;;;;;;;;;5051234;28;20032;-73
2023/03/07 03:42:43;;;;;;;21.75;13.68;;;;;;;;;;5051200;28;20013;-75
2023/03/07 03:45:09;;;;;;;24.92;13.07;;;;;;;;;;5050930;28;20013;-74
2023/03/07 03:47:35;;;;;;;23.10;12.98;;;;;;;;;;5032187;28;20032;-76
2023/03/07 03:50:02;;;;;;;20.55;13.50;;;;;;;;;;5033085;28;20040;-74
2023/03/07 03:52:28;;;;;;;21.20;13.45;;;;;;;;;;5050605;28;20025;-75
2023/03/07 03:54:54;;;;;;;19.65;12.35;;;;;;;;;;5050839;28;20143;-75
2023/03/07 03:57:20;;;;;;;24.80;13.80;;;;;;;;;;5050109;28;20018;-72
2023/03/07 03:59:46;;;;;;;18.88;12.65;;;;;;;;;;5050640;28;20024;-72
2023/03/07 04:02:13;;;;;;;18.25;12.10;;;;;;;;;;5050322;28;20017;-74
2023/03/07 04:04:39;;;;;;;18.38;11.38;;;;;;;;;;5050905;28;20017;-73
2023/03/07 04:07:05;;;;;;;19.05;12.00;;;;;;;;;;5050390;28;20445;-71
2023/03/07 04:09:32;;;;;;;16.40;11.88;;;;;;;;;;5050817;28;20021;-72
2023/03/07 04:11:58;;;;;;;17.27;11.13;;;;;;;;;;5050558;28;20021;-72
2023/03/07 04:14:24;;;;;;;18.73;11.27;;;;;;;;;;5052303;28;20094;-72
2023/03/07 04:16:50;;;;;;;18.17;12.05;;;;;;;;;;5070013;28;20462;-72
2023/03/07 04:19:16;;;;;;;16.45;10.48;;;;;;;;;;5050220;28;20017;-73
2023/03/07 04:21:43;;;;;;;20.98;13.02;;;;;;;;;;5050648;28;20029;-75
2023/03/07 04:24:09;;;;;;;17.58;11.55;;;;;;;;;;5050738;28;20021;-72
2023/03/07 04:26:35;;;;;;;18.02;11.93;;;;;;;;;;5032340;28;20040;-74
2023/03/07 04:29:01;;;;;;;17.17;11.60;;;;;;;;;;5039150;28;20020;-73
2023/03/07 04:31:27;;;;;;;19.55;11.98;;;;;;;;;;5059537;28;20029;-73
2023/03/07 04:33:54;;;;;;;19.20;11.65;;;;;;;;;;5050585;28;20044;-73
2023/03/07 04:36:21;;;;;;;18.67;11.68;;;;;;;;;;5053946;28;20025;-73
2023/03/07 04:38:47;;;;;;;18.77;11.98;;;;;;;;;;5053789;28;20029;-74
2023/03/07 04:41:14;;;;;;;19.30;11.43;;;;;;;;;;5036483;28;20075;-74
2023/03/07 04:43:40;;;;;;;19.30;12.15;;;;;;;;;;5054384;28;20021;-72
2023/03/07 04:46:07;;;;;;;19.27;11.80;;;;;;;;;;5053936;28;20384;-74
2023/03/07 04:48:33;;;;;;;17.98;11.18;;;;;;;;;;5051402;28;20021;-74
2023/03/07 04:50:59;;;;;;;18.00;11.52;;;;;;;;;;5054336;28;20025;-74
2023/03/07 04:53:25;;;;;;;19.90;12.27;;;;;;;;;;5053776;28;20070;-74
2023/03/07 04:55:56;;;;;;;17.42;10.85;;;;;;;;;;5067301;28;20066;-72
2023/03/07 04:58:22;;;;;;;13.63;8.23;;;;;;;;;;5054942;28;20032;-73
2023/03/07 05:00:48;;;;;;;18.40;10.40;;;;;;;;;;5068817;28;20111;-73
2023/03/07 05:03:14;;;;;;;17.85;10.80;;;;;;;;;;5044868;28;20020;-73
2023/03/07 05:05:40;;;;;;;18.27;11.15;;;;;;;;;;5062347;28;20029;-73
2023/03/07 05:08:06;;;;;;;19.10;11.15;;;;;;;;;;5068800;28;20032;-74
2023/03/07 05:10:33;;;;;;;16.10;10.25;;;;;;;;;;5070999;28;20028;-76
2023/03/07 05:12:59;;;;;;;18.38;11.18;;;;;;;;;;5057263;28;20017;-75
2023/03/07 05:15:26;;;;;;;14.65;9.63;;;;;;;;;;5059046;28;20380;-75
2023/03/07 05:17:52;;;;;;;17.83;11.40;;;;;;;;;;5048279;28;20062;-75
2023/03/07 05:20:18;;;;;;;20.85;11.40;;;;;;;;;;5065280;28;20025;-73
2023/03/07 05:22:44;;;;;;;17.13;10.35;;;;;;;;;;5062288;28;20024;-74
2023/03/07 05:25:10;;;;;;;18.45;10.60;;;;;;;;;;5053400;28;20044;-74
2023/03/07 05:27:36;;;;;;;17.25;10.85;;;;;;;;;;5064232;28;20420;-75
2023/03/07 05:30:02;;;;;;;17.70;11.18;;;;;;;;;;5058061;28;20104;-74
2023/03/07 05:32:29;;;;;;;18.13;10.85;;;;;;;;;;5051037;28;20060;-72
2023/03/07 05:34:55;;;;;;;19.40;11.48;;;;;;;;;;5055758;28;20107;-74
2023/03/07 05:37:21;;;;;;;18.30;11.70;;;;;;;;;;5052482;28;20029;-73
2023/03/07 05:39:47;;;;;;;20.38;12.48;;;;;;;;;;5052761;28;20483;-72
2023/03/07 05:42:14;;;;;;;18.40;11.73;;;;;;;;;;5069884;28;20077;-72
2023/03/07 05:44:40;;;;;;;17.65;10.57;;;;;;;;;;5072768;28;20483;-72
2023/03/07 05:47:06;;;;;;;21.95;11.68;;;;;;;;;;5067738;28;20522;-72
2023/03/07 05:49:32;;;;;;;18.85;11.18;;;;;;;;;;5053273;28;20029;-73
2023/03/07 05:51:58;;;;;;;18.55;12.07;;;;;;;;;;5053018;28;20025;-72
2023/03/07 05:54:24;;;;;;;19.20;11.35;;;;;;;;;;5035240;28;20035;-73
2023/03/07 05:56:50;;;;;;;20.25;11.98;;;;;;;;;;5057473;28;20020;-74
2023/03/07 05:59:16;;;;;;;17.45;10.48;;;;;;;;;;5048087;28;20025;-74
2023/03/07 06:01:42;;;;;;;20.08;11.73;;;;;;;;;;5052491;28;20024;-73
2023/03/07 06:04:09;;;;;;;17.50;11.43;;;;;;;;;;5046751;28;20037;-73
2023/03/07 06:06:35;;;;;;;16.25;10.65;;;;;;;;;;5053520;28;20025;-74
2023/03/07 06:09:01;;;;;;;16.95;10.93;;;;;;;;;;5054919;28;20036;-73
2023/03/07 06:11:27;;;;;;;19.63;11.07;;;;;;;;;;5049710;28;20029;-74
2023/03/07 06:13:54;;;;;;;19.88;11.70;;;;;;;;;;5062724;28;20138;-72
2023/03/07 06:16:20;;;;;;;16.92;10.90;;;;;;;;;;5044049;28;20495;-73
2023/03/07 06:18:46;;;;;;;16.13;10.57;;;;;;;;;;5055035;28;20490;-74
2023/03/07 06:21:14;;;;;;;15.43;10.05;;;;;;;;;;5062849;28;20021;-73
2023/03/07 06:23:40;;;;;;;17.77;10.70;;;;;;;;;;5070879;28;20391;-74
2023/03/07 06:26:07;;;;;;;18.27;10.48;;;;;;;;;;5065068;28;20109;-74
2023/03/07 06:28:33;;;;;;;16.00;11.07;;;;;;;;;;5063593;28;20025;-73
2023/03/07 06:30:59;;;;;;;16.08;10.43;;;;;;;;;;5064290;28;20017;-70
2023/03/07 06:33:25;;;;;;;14.60;9.93;;;;;;;;;;5054474;28;20099;-72
2023/03/07 06:35:51;;;;;;;16.45;10.68;;;;;;;;;;5043797;28;20072;-73
2023/03/07 06:38:17;;;;;;;16.52;10.00;;;;;;;;;;5055260;28;20530;-74
2023/03/07 06:40:44;;;;;;;18.95;10.57;;;;;;;;;;5034499;28;20020;-70
2023/03/07 06:43:11;;;;;;;16.27;10.40;;;;;;;;;;5053436;28;20061;-72
2023/03/07 06:45:37;;;;;;;18.35;11.10;;;;;;;;;;5052380;28;20025;-74
2023/03/07 06:48:03;;;;;;;18.02;10.88;;;;;;;;;;5052157;28;20063;-75
2023/03/07 06:50:29;;;;;;;18.45;10.68;;;;;;;;;;5062191;28;20090;-75
2023/03/07 06:52:55;;;;;;;18.88;10.95;;;;;;;;;;5058575;28;20020;-74
2023/03/07 06:55:21;;;;;;;20.88;10.88;;;;;;;;;;5054194;28;20097;-73
2023/03/07 06:57:47;;;;;;;14.02;9.68;;;;;;;;;;5071001;28;20436;-72
2023/03/07 07:00:13;;;;;;;15.07;9.85;;;;;;;;;;5038386;28;20025;-74
2023/03/07 07:02:39;;;;;;;16.67;10.00;;;;;;;;;;5070769;28;20019;-73
2023/03/07 07:05:05;;;;;;;17.98;10.85;;;;;;;;;;5072159;28;20024;-73
2023/03/07 07:07:31;;;;;;;16.05;10.38;;;;;;;;;;5061190;28;20029;-73
2023/03/07 07:09:57;;;;;;;17.92;10.63;;;;;;;;;;5049870;28;20040;-72
2023/03/07 07:12:23;;;;;;;14.35;9.23;;;;;;;;;;5049301;28;20033;-76
2023/03/07 07:14:49;;;;;;;13.95;8.70;;;;;;;;;;5035734;28;20033;-74
2023/03/07 07:17:15;;;;;;;14.23;8.65;;;;;;;;;;5049441;28;20035;-75
2023/03/07 07:19:41;;;;;;;15.95;9.57;;;;;;;;;;5050192;28;20021;-75
2023/03/07 07:22:10;;;;;;;12.30;8.57;;;;;;;;;;5050009;28;20029;-73
2023/03/07 07:24:37;;;;;;;14.05;9.82;;;;;;;;;;5032955;28;20028;-73
2023/03/07 07:27:03;;;;;;;12.60;8.55;;;;;;;;;;5051346;28;20521;-74
2023/03/07 07:29:29;;;;;;;12.35;8.15;;;;;;;;;;5051406;28;20021;-74
2023/03/07 07:31:55;;;;;;;16.05;8.55;;;;;;;;;;5051586;28;20100;-73
2023/03/07 07:34:21;;;;;;;16.02;10.43;;;;;;;;;;5051248;28;20029;-72
2023/03/07 07:36:47;;;;;;;12.02;8.05;;;;;;;;;;5033215;28;20079;-73
2023/03/07 07:39:14;;;;;;;13.63;8.35;;;;;;;;;;5050985;28;20017;-72
2023/03/07 07:41:40;;;;;;;11.10;7.80;;;;;;;;;;5045816;28;20100;-71
2023/03/07 07:44:06;;;;;;;12.57;8.05;;;;;;;;;;5056616;28;20086;-72
2023/03/07 07:46:32;;;;;;;11.80;8.00;;;;;;;;;;5054117;28;20025;-73
2023/03/07 07:48:58;;;;;;;11.07;7.68;;;;;;;;;;5064263;28;20052;-73
2023/03/07 07:51:24;;;;;;;11.75;7.78;;;;;;;;;;5038543;28;20025;-73
2023/03/07 07:53:50;;;;;;;11.75;7.80;;;;;;;;;;5054787;28;20071;-73
2023/03/07 07:56:16;;;;;;;13.60;9.00;;;;;;;;;;5050875;28;20395;-73
2023/03/07 07:58:42;;;;;;;13.23;8.75;;;;;;;;;;5032968;28;20018;-71
2023/03/07 08:01:19;;;;;;;12.20;7.60;;;;;;;;;;5051156;28;20036;-76
2023/03/07 08:03:45;;;;;;;14.88;8.35;;;;;;;;;;5035878;28;20046;-74
2023/03/07 08:06:11;;;;;;;11.52;7.60;;;;;;;;;;5050352;28;20017;-74
2023/03/07 08:08:37;;;;;;;13.07;8.30;;;;;;;;;;5051685;28;20025;-73
2023/03/07 08:11:04;;;;;;;10.15;7.10;;;;;;;;;;5051427;28;20021;-77
2023/03/07 08:13:30;;;;;;;9.40;6.65;;;;;;;;;;5059463;28;20057;-79
2023/03/07 08:15:56;;;;;;;10.63;7.65;;;;;;;;;;5053208;28;20025;-79
2023/03/07 08:18:22;;;;;;;11.50;8.02;;;;;;;;;;5053114;28;20029;-77
2023/03/07 08:20:48;;;;;;;11.48;7.70;;;;;;;;;;5053438;28;20024;-76
2023/03/07 08:23:14;;;;;;;9.45;6.70;;;;;;;;;;5053399;28;20017;-76
2023/03/07 08:25:40;;;;;;;8.63;5.80;;;;;;;;;;5054316;28;20055;-76
2023/03/07 08:28:06;;;;;;;9.70;6.75;;;;;;;;;;5052803;28;20361;-76
2023/03/07 08:30:33;;;;;;;8.43;6.18;;;;;;;;;;5055571;28;20028;-79
2023/03/07 08:32:59;;;;;;;7.13;5.50;;;;;;;;;;5058672;28;20066;-76
2023/03/07 08:35:26;;;;;;;8.48;6.00;;;;;;;;;;5054807;28;20110;-75
2023/03/07 08:37:54;;;;;;;8.85;5.55;;;;;;;;;;5054674;28;20021;-78
2023/03/07 08:40:20;;;;;;;7.70;5.82;;;;;;;;;;5054986;28;20476;-77
2023/03/07 08:42:46;;;;;;;8.38;6.40;;;;;;;;;;5054849;28;20021;-76
2023/03/07 08:45:12;;;;;;;9.02;5.90;;;;;;;;;;5054605;28;20048;-77
2023/03/07 08:47:38;;;;;;;7.82;5.53;;;;;;;;;;5065341;28;20367;-76
2023/03/07 08:50:05;;;;;;;7.60;5.20;;;;;;;;;;5056593;28;20043;-73
2023/03/07 08:52:31;;;;;;;5.95;4.70;;;;;;;;;;5056607;28;20029;-74
2023/03/07 08:54:57;;;;;;;8.02;5.80;;;;;;;;;;5043207;28;20025;-74
2023/03/07 08:57:24;;;;;;;6.95;5.13;;;;;;;;;;5050538;28;20036;-74
2023/03/07 08:59:50;;;;;;;7.32;5.10;;;;;;;;;;5061543;28;20021;-77
2023/03/07 09:02:16;;;;;;;7.65;5.03;;;;;;;;;;5064964;28;20398;-73
2023/03/07 09:04:42;;;;;;;6.78;5.07;;;;;;;;;;5048219;28;20128;-74
2023/03/07 09:07:08;;;;;;;7.93;5.40;;;;;;;;;;5035852;28;20017;-77
2023/03/07 09:09:34;;;;;;;6.63;5.28;;;;;;;;;;5053249;28;20028;-75
2023/03/07 09:12:00;;;;;;;7.80;5.38;;;;;;;;;;5035929;28;20041;-77
2023/03/07 09:14:26;;;;;;;5.45;4.40;;;;;;;;;;5053805;28;20029;-77
2023/03/07 09:16:52;;;;;;;7.20;4.88;;;;;;;;;;5053730;28;20052;-75
2023/03/07 09:19:18;;;;;;;6.35;4.30;;;;;;;;;;5053865;28;20021;-74
2023/03/07 09:21:44;;;;;;;5.78;4.63;;;;;;;;;;5035639;28;20035;-74
2023/03/07 09:24:10;;;;;;;6.25;4.43;;;;;;;;;;5052484;28;20013;-75
2023/03/07 09:26:36;;;;;;;6.57;4.68;;;;;;;;;;5053706;28;20044;-73
2023/03/07 09:29:03;;;;;;;6.75;4.97;;;;;;;;;;5053225;28;20075;-74
2023/03/07 09:31:28;;;;;;;7.03;5.03;;;;;;;;;;5052046;28;20111;-74
2023/03/07 09:33:56;;;;;;;5.97;4.85;;;;;;;;;;5052131;28;20452;-74
2023/03/07 09:36:22;;;;;;;6.45;4.80;;;;;;;;;;5051881;28;20036;-74
2023/03/07 09:38:48;;;;;;;6.40;4.93;;;;;;;;;;5051889;28;20021;-75
2023/03/07 09:41:20;;;;;;;6.10;4.25;;;;;;;;;;5052300;28;20557;-74
2023/03/07 09:44:09;;;;;;;5.40;4.20;;;;;;;;;;5053304;28;20033;-75
2023/03/07 09:46:41;;;;;;;8.05;5.13;;;;;;;;;;5007114;28;20406;-74
2023/03/07 09:49:17;;;;;;;6.88;4.55;;;;;;;;;;5052759;28;20483;-76
2023/03/07 09:51:45;;;;;;;6.88;4.88;;;;;;;;;;5052420;28;20029;-77
2023/03/07 09:54:26;;;;;;;5.32;4.20;;;;;;;;;;5053446;28;20029;-74
2023/03/07 09:56:52;;;;;;;6.90;4.85;;;;;;;;;;5053260;28;20493;-75
2023/03/07 09:59:21;;;;;;;6.45;4.93;;;;;;;;;;5053398;28;20032;-77
2023/03/07 10:01:50;;;;;;;6.57;4.80;;;;;;;;;;5065326;28;20359;-74
2023/03/07 10:04:21;;;;;;;6.30;5.15;;;;;;;;;;5073614;28;20024;-74
2023/03/07 10:06:47;;;;;;;;;;;;;;;;;;5073438;28;20052;-75
2023/03/07 10:09:17;;;;;;;8.65;4.97;;;;;;;;;;5073041;28;19946;-75
2023/03/07 10:11:52;;;;;;;10.07;5.20;;;;;;;;;;5073336;28;20077;-74
2023/03/07 10:14:27;;;;;;;8.30;5.22;;;;;;;;;;5073195;28;20028;-75
2023/03/07 10:16:53;;;;;;;7.97;5.32;;;;;;;;;;5073315;28;20055;-74
2023/03/07 10:19:39;;;;;;;8.63;5.40;;;;;;;;;;5053043;28;20483;-74
2023/03/07 10:22:24;;;;;;;9.23;5.63;;;;;;;;;;5033387;28;20536;-74
2023/03/07 10:25:09;;;;;;;9.30;6.03;;;;;;;;;;5033837;28;20026;-74
2023/03/07 10:27:35;;;;;;;6.32;5.45;;;;;;;;;;5052723;28;20455;-73
2023/03/07 10:30:06;;;;;;;8.40;5.50;;;;;;;;;;5052578;28;20467;-74
2023/03/07 10:32:32;;;;;;;9.32;6.28;;;;;;;;;;5051913;28;20108;-74
2023/03/07 10:35:13;;;;;;;16.45;7.30;;;;;;;;;;5050062;28;20459;-74
2023/03/07 10:37:45;;;;;;;13.02;5.60;;;;;;;;;;5042125;28;20025;-76
2023/03/07 10:40:29;;;;;;;9.52;6.00;;;;;;;;;;5052021;28;20062;-78
2023/03/07 10:42:56;;;;;;;9.13;6.20;;;;;;;;;;5026734;28;20063;-75
2023/03/07 10:45:22;;;;;;;7.63;5.88;;;;;;;;;;5051765;28;20110;-74
2023/03/07 10:47:48;;;;;;;7.88;6.00;;;;;;;;;;5051470;28;20029;-74
2023/03/07 10:50:23;;;;;;;9.48;6.00;;;;;;;;;;5052065;28;20029;-74
2023/03/07 10:52:52;;;;;;;11.40;5.55;;;;;;;;;;5035708;28;20025;-74
2023/03/07 10:55:37;;;;;;;15.85;6.72;;;;;;;;;;5052032;28;20077;-73
2023/03/07 10:58:12;;;;;;;7.45;5.40;;;;;;;;;;5051173;28;20392;-73
2023/03/07 11:00:38;;;;;;;9.52;6.55;;;;;;;;;;5051904;28;20390;-73
2023/03/07 11:03:04;;;;;;;10.82;6.55;;;;;;;;;;5033834;28;20025;-73
2023/03/07 11:05:32;;;;;;;7.32;5.90;;;;;;;;;;5051393;28;20025;-73
2023/03/07 11:07:59;;;;;;;8.38;5.82;;;;;;;;;;5051190;28;20059;-75
2023/03/07 11:10:35;;;;;;;8.45;5.95;;;;;;;;;;5051591;28;20025;-74
2023/03/07 11:13:13;;;;;;;10.23;6.22;;;;;;;;;;5052047;28;20039;-74
2023/03/07 11:15:39;;;;;;;8.85;5.95;;;;;;;;;;5062359;28;20107;-75
2023/03/07 11:18:23;;;;;;;9.05;5.70;;;;;;;;;;5053337;28;20060;-75
2023/03/07 11:20:50;;;;;;;10.40;5.82;;;;;;;;;;5072725;28;20056;-75
2023/03/07 11:23:17;;;;;;;10.02;6.13;;;;;;;;;;5072975;28;20021;-76
2023/03/07 11:25:43;;;;;;;6.63;5.10;;;;;;;;;;5072961;28;20033;-74
2023/03/07 11:28:36;;;;;;;8.25;5.72;;;;;;;;;;5071500;28;20020;-74
2023/03/07 11:31:31;;;;;;;8.80;6.03;;;;;;;;;;5048227;28;20044;-74
2023/03/07 11:34:03;;;;;;;7.55;5.88;;;;;;;;;;5030287;28;20033;-73
2023/03/07 11:36:34;;;;;;;6.53;5.00;;;;;;;;;;5051504;28;20075;-75
2023/03/07 11:39:10;;;;;;;8.15;5.68;;;;;;;;;;5050740;28;20072;-74
2023/03/07 11:41:37;;;;;;;8.48;6.00;;;;;;;;;;5051970;28;20029;-74
2023/03/07 11:44:06;;;;;;;8.13;5.68;;;;;;;;;;5051245;28;20028;-75
2023/03/07 11:46:38;;;;;;;9.20;5.55;;;;;;;;;;5068828;28;20028;-72
2023/03/07 11:49:23;;;;;;;10.75;6.30;;;;;;;;;;5070050;28;20025;-75
2023/03/07 11:51:58;;;;;;;8.13;5.20;;;;;;;;;;5056948;28;20075;-76
2023/03/07 11:54:27;;;;;;;11.32;5.88;;;;;;;;;;5051163;28;20078;-75
2023/03/07 11:56:55;;;;;;;6.35;5.25;;;;;;;;;;5056769;28;20033;-76
2023/03/07 11:59:40;;;;;;;7.43;5.72;;;;;;;;;;5043081;28;20028;-77
2023/03/07 12:02:25;;;;;;;9.50;6.45;;;;;;;;;;5067704;28;21623;-78
2023/03/07 12:04:58;;;;;;;9.45;5.60;;;;;;;;;;5063296;28;20081;-77
2023/03/07 12:07:51;;;;;;;8.02;5.32;;;;;;;;;;5061105;28;20029;-75
2023/03/07 12:10:29;;;;;;;10.35;5.80;;;;;;;;;;5051132;28;20360;-75
2023/03/07 12:13:13;;;;;;;9.32;5.25;;;;;;;;;;5050867;28;20020;-76
2023/03/07 12:15:42;;;;;;;7.97;5.80;;;;;;;;;;5050321;28;20029;-75
2023/03/07 12:18:14;;;;;;;10.18;6.28;;;;;;;;;;5049894;28;20013;-73
2023/03/07 12:20:52;;;;;;;7.97;5.90;;;;;;;;;;5050668;28;20410;-74
2023/03/07 12:23:20;;;;;;;8.90;5.70;;;;;;;;;;5050380;28;20024;-75
2023/03/07 12:25:52;;;;;;;8.77;5.75;;;;;;;;;;5050527;28;20025;-73
2023/03/07 12:28:21;;;;;;;14.50;6.15;;;;;;;;;;5049420;28;20032;-77
2023/03/07 12:31:13;;;;;;;7.80;5.40;;;;;;;;;;5050223;28;20028;-76
2023/03/07 12:33:47;;;;;;;10.93;5.93;;;;;;;;;;5045962;28;20068;-75
2023/03/07 12:36:26;;;;;;;7.45;5.63;;;;;;;;;;5050671;28;20029;-75
2023/03/07 12:38:54;;;;;;;11.13;5.70;;;;;;;;;;5048042;28;20032;-75
2023/03/07 12:41:39;;;;;;;6.47;5.10;;;;;;;;;;5041637;28;20026;-76
2023/03/07 12:44:10;;;;;;;8.35;5.18;;;;;;;;;;5030388;28;20032;-75
2023/03/07 12:46:39;;;;;;;7.18;5.70;;;;;;;;;;5030621;28;20283;-75
2023/03/07 12:49:14;;;;;;;7.45;5.57;;;;;;;;;;5028380;28;20052;-75
2023/03/07 12:51:44;;;;;;;8.27;5.97;;;;;;;;;;5030456;28;20026;-74
2023/03/07 12:54:13;;;;;;;8.95;5.72;;;;;;;;;;5030310;28;20116;-74
2023/03/07 12:56:39;;;;;;;9.43;5.40;;;;;;;;;;5033144;28;20036;-75
2023/03/07 12:59:09;;;;;;;8.30;5.60;;;;;;;;;;5034113;28;20088;-74
2023/03/07 13:01:40;;;;;;;10.30;6.40;;;;;;;;;;5035216;28;20491;-75
2023/03/07 13:04:13;;;;;;;8.18;5.88;;;;;;;;;;5034736;28;20035;-78
2023/03/07 13:06:40;;;;;;;7.40;5.75;;;;;;;;;;5034484;28;20045;-75
2023/03/07 13:09:09;;;;;;;10.50;6.03;;;;;;;;;;5033384;28;20116;-75
2023/03/07 13:11:35;;;;;;;8.13;5.55;;;;;;;;;;5034167;28;20036;-75
2023/03/07 13:14:02;;;;;;;7.82;6.20;;;;;;;;;;5046257;28;20025;-76
2023/03/07 13:16:42;;;;;;;10.02;6.25;;;;;;;;;;5053702;28;20063;-76
2023/03/07 13:19:26;;;;;;;11.70;6.10;;;;;;;;;;5033236;28;20129;-76
2023/03/07 13:21:52;;;;;;;7.50;5.72;;;;;;;;;;5032287;28;20104;-75
2023/03/07 13:24:35;;;;;;;11.57;6.80;;;;;;;;;;5032141;28;20036;-76
2023/03/07 13:27:12;;;;;;;9.13;6.05;;;;;;;;;;5032149;28;20120;-74
2023/03/07 13:29:58;;;;;;;11.38;5.85;;;;;;;;;;5033917;28;20119;-75
2023/03/07 13:32:43;;;;;;;11.38;6.22;;;;;;;;;;5033998;28;20088;-75
2023/03/07 13:35:09;;;;;;;11.65;7.82;;;;;;;;;;5033870;28;20032;-75
2023/03/07 13:37:52;;;;;;;8.15;6.13;;;;;;;;;;5032905;28;20034;-77
2023/03/07 13:40:37;;;;;;;9.68;6.20;;;;;;;;;;5033908;28;20053;-76
2023/03/07 13:43:05;;;;;;;10.40;6.05;;;;;;;;;;5033682;28;20017;-76
2023/03/07 13:45:37;;;;;;;8.02;5.40;;;;;;;;;;5033571;28;20029;-76
2023/03/07 13:48:04;;;;;;;7.60;5.80;;;;;;;;;;5032487;28;20025;-74
2023/03/07 13:50:36;;;;;;;10.77;6.13;;;;;;;;;;5033702;28;20476;-78
2023/03/07 13:53:03;;;;;;;8.13;5.80;;;;;;;;;;5033851;28;20055;-75
2023/03/07 13:55:37;;;;;;;14.05;6.80;;;;;;;;;;5033488;28;20494;-75
2023/03/07 13:58:19;;;;;;;8.32;5.65;;;;;;;;;;5032950;28;20029;-75
2023/03/07 14:01:11;;;;;;;9.38;6.55;;;;;;;;;;5033374;28;20430;-76
2023/03/07 14:03:39;;;;;;;8.35;6.32;;;;;;;;;;5030038;28;20030;-75
2023/03/07 14:06:17;;;;;;;7.95;5.65;;;;;;;;;;5032848;28;20041;-75
2023/03/07 14:08:43;;;;;;;11.55;6.78;;;;;;;;;;5032850;28;20021;-75
2023/03/07 14:11:36;;;;;;;9.45;5.95;;;;;;;;;;5015555;28;20086;-75
2023/03/07 14:14:03;;;;;;;8.10;5.90;;;;;;;;;;5030140;28;20118;-75
2023/03/07 14:16:46;;;;;;;12.52;6.28;;;;;;;;;;5032807;28;20017;-75
2023/03/07 14:19:14;;;;;;;8.48;5.90;;;;;;;;;;5032367;28;20021;-74
2023/03/07 14:21:40;;;;;;;9.82;6.32;;;;;;;;;;5032953;28;20083;-76
2023/03/07 14:24:14;;;;;;;7.43;5.68;;;;;;;;;;5033283;28;20029;-75
2023/03/07 14:26:44;;;;;;;7.05;5.38;;;;;;;;;;5032940;28;20033;-76
2023/03/07 14:29:21;;;;;;;6.90;5.30;;;;;;;;;;5032353;28;20387;-75
2023/03/07 14:31:48;;;;;;;8.75;5.50;;;;;;;;;;5015605;28;20052;-74
2023/03/07 14:34:23;;;;;;;8.00;6.03;;;;;;;;;;5048808;28;20107;-73
2023/03/07 14:37:00;;;;;;;9.02;5.95;;;;;;;;;;5043998;28;20025;-75
2023/03/07 14:39:37;;;;;;;7.47;5.10;;;;;;;;;;5052216;28;20483;-75